METAR AND TAF INFORMATION
METAR FOR EPSC
ADDS - METARS form results

(0048 UTC 23 May 2018)
Data provider http://aviationweather.gov/adds/metars/
 
METAR text: EPSC 230030Z 03004KT CAVOK 10/07 Q1019
Conditions at: EPSC (SZCZECIN/GOLENIO, PL) observed 0030 UTC 23 May 2018
Temperature: 10.0°C (50°F)
Dewpoint: 7.0°C (45°F) [RH = 82%]
Pressure (altimeter): 30.09 inches Hg (1019.0 mb)
Winds: from the NNE (30 degrees) at 5 MPH (4 knots; 2.1 m/s)
Visibility: 6 or more miles (10+ km)
Ceiling: ceiling and visibility are OK
Clouds: unknown
Weather: no significant weather observed at this time

METAR text: EPSC 230000Z 02004KT CAVOK 11/07 Q1019
Conditions at: EPSC (SZCZECIN/GOLENIO, PL) observed 0000 UTC 23 May 2018
Temperature: 11.0°C (52°F)
Dewpoint: 7.0°C (45°F) [RH = 76%]
Pressure (altimeter): 30.09 inches Hg (1019.0 mb)
Winds: from the NNE (20 degrees) at 5 MPH (4 knots; 2.1 m/s)
Visibility: 6 or more miles (10+ km)
Ceiling: ceiling and visibility are OK
Clouds: unknown
Weather: no significant weather observed at this time

Forecast for: EPSC (SZCZECIN/GOLENIO, PL)
Text: TAF EPSC 222330Z 2300/2324 04006KT CAVOK
Forecast period: 0000 UTC 23 May 2018 to 0000 UTC 24 May 2018
Forecast type: FROM: standard forecast or significant change
Winds: from the NE (40 degrees) at 7 MPH (6 knots; 3.1 m/s)
Visibility: 6 or more miles (10+ km)
Clouds: not forecast
Weather: NSW  (no significant weather)
Forecast for: EPSC (SZCZECIN/GOLENIO, PL)
Text: TAF EPSC 222330Z 2300/2324 04006KT CAVOK
Forecast period: 0000 UTC 23 May 2018 to 0000 UTC 24 May 2018
Forecast type: FROM: standard forecast or significant change
Winds: from the NE (40 degrees) at 7 MPH (6 knots; 3.1 m/s)
Visibility: 6 or more miles (10+ km)
Clouds: not forecast
Weather: NSW  (no significant weather)

 AIRPORT MAP

 RUNWAY INFORMATION
Runway 13 Runway length 8202 ft Runway width 197 ft
Runway elevation 118 ft Runway displaced threshold 0 ft Runway heading 131
Runway 31 Runway length 8202 ft Runway width 197 ft
Runway elevation 154 ft Runway displaced threshold 0 ft Runway heading 311

 AIRPORT FREQUENCIES
Type TWR Name SZCZECIN T Frequency 118.5 MHZ

 AIRPORT NEAR NAVIGATION AIDS
Type NDB Name Szczecin Frequency 397 KHZ



Powered by Virtual Airlines Manager [v2.6.1]